Terminal Aerodrome Forecast
Issued by NWS

Home | Current Version | Previous Version | Text Only | Print | Product List | Glossary On
Versions: 1 2 3 4 5 6 7 8 9 10 11 12 13 14 15 16 17 18 19 20 21 22 23 24 25 26 27
000
FTUS43 KDLH 221300 AAB
TAFHYR
TAF AMD
KHYR 221306Z 2213/2312 00000KT 3/4SM BR OVC002
     FM221400 26002KT P6SM SKC
     FM221800 26007KT P6SM FEW025=

USA.gov is the U.S. government's official web portal to all federal, state and local government web resources and services.